Airfield :
LOGIN :

Register | Disclaimer

   EN    FR    IT 

 










Legend :    VFR   Marginal VFR   IFR   Intensive IFR   Very Intensive IFR
Visi :
Ceiling :
>= 8 km
>= 3000ft
5 to 8 km
1000 to 3000 ft
1500m to 5 km
500 to 1000 ft
800 to 1500m
200 to 500 ft
< 800m
< 200 ft
Symbols :   Thunderstorms  Fog  Heavy snow  Heavy precipitations  Wind > 20 kt
SIGMETs :     Misc.  Thunderstorms  Icing  Turbulence  Mountain Waves  Volcanic Ashes






- Airport Elevation : 90 ft
- IATA code : NTE


LFRS - Nantes

CURRENT METAR :
  • 220600Z AUTO VRB03KT CAVOK 05/04 Q0993 NOSIG

EXPIRED METARs :
  • 220530Z AUTO 01003KT 340V040 CAVOK 05/04 Q0993 NOSIG
  • 220500Z AUTO 02003KT 350V060 CAVOK 05/04 Q0993 TEMPO 4500 RA BKN013 SCT030CB
  • 220430Z AUTO 02006KT 350V050 9999 FEW009 BKN060 OVC082 05/04 Q0992 TEMPO 4500 RA BKN013 SCT030CB
  • 220400Z AUTO 36005KT 330V030 9999 BKN010 BKN048 OVC056 06/05 Q0992 TEMPO 4500 RA BKN013 SCT030CB
  • 220330Z AUTO 02007KT 350V060 9999 BKN010 BKN027 OVC032 06/05 Q0992 TEMPO 4500 RA BKN013 SCT030CB

TAF TAF LFRS
Valid from the 22 at 06:00 until the 23 at 12:00 UTC


220500Z 2206/2312 35006KT CAVOK
BECMG 2212/2214 26010KT
TEMPO 2214/2221 25015G25KT -SHRA BKN020TCU
BECMG 2300/2302 18010KT -RA
TEMPO 2302/2304 3000 RA OVC005
BECMG 2304/2306 25015G25KT NSW
BECMG 2308/2310 27020G35KT
TEMPO 2308/2310 -SHRA
ATIS : +33 2 40 05 12 74



MET'MAP, your aeronautical weather chart ! - Copyright ORBIFLY December 2007 - Disclaimer

ORBIFLY MET'MAP TEAM :

Programming & Development : Alexandra Zaïnal
Concept & original design : Baudouin d'Aumeries
Assistance for programming : Marc-Olivier Méhu
Technical & hardware support : Manuel Goepfert

Contact : metmap@orbifly.com




SOURCES & CREDITS :

   NOAA